createdAt,value
2023-02-01T08:34:34.816Z,972.50
2023-02-01T08:35:42.827Z,972.57
2023-02-01T08:36:33.795Z,972.61
2023-02-01T08:37:33.092Z,972.52
2023-02-01T08:38:33.381Z,972.50
2023-02-01T08:39:33.754Z,972.52
2023-02-01T08:40:34.004Z,972.57
2023-02-01T08:41:34.311Z,972.52
2023-02-01T08:42:34.491Z,972.50
2023-02-01T08:43:34.790Z,972.47
2023-02-01T08:44:35.059Z,972.50
2023-02-01T08:45:35.506Z,972.44
2023-02-01T08:46:35.624Z,972.50
2023-02-01T08:47:35.922Z,972.60
2023-02-01T08:48:36.209Z,972.67
2023-02-01T08:49:36.485Z,972.68
2023-02-01T08:50:36.880Z,972.59
2023-02-01T08:51:36.953Z,972.63
2023-02-01T08:52:38.290Z,972.62
2023-02-01T08:53:37.375Z,972.61
2023-02-01T08:54:37.525Z,972.61
2023-02-01T08:55:37.795Z,972.58
2023-02-01T08:56:38.062Z,972.56
2023-02-01T08:57:38.255Z,972.63
2023-02-01T08:58:38.415Z,972.67
2023-02-01T08:59:38.691Z,972.71
2023-02-01T09:00:38.836Z,972.61
2023-02-01T09:01:39.185Z,972.61
2023-02-01T09:02:39.312Z,972.69
2023-02-01T09:03:39.622Z,972.69
2023-02-01T09:04:39.740Z,972.71
2023-02-01T09:05:49.088Z,972.70
2023-02-01T09:06:41.260Z,972.66
2023-02-01T09:07:40.492Z,972.70
2023-02-01T09:08:40.747Z,972.62
2023-02-01T09:09:41.012Z,972.76
2023-02-01T09:10:41.700Z,972.70
2023-02-01T09:11:41.506Z,972.70
2023-02-01T09:12:41.768Z,972.73
2023-02-01T09:13:42.029Z,972.82
2023-02-01T09:14:42.290Z,972.84
2023-02-01T09:15:42.582Z,972.85
2023-02-01T09:16:42.790Z,972.87
2023-02-01T09:17:43.059Z,972.93
2023-02-01T09:18:55.425Z,972.91
2023-02-01T09:19:44.530Z,972.91
2023-02-01T09:20:43.703Z,972.93
2023-02-01T09:21:43.951Z,972.98
2023-02-01T09:22:44.216Z,972.98
2023-02-01T09:23:44.472Z,973.05
2023-02-01T09:24:44.750Z,972.83
2023-02-01T09:25:44.909Z,972.85
2023-02-01T09:26:45.159Z,972.87
2023-02-01T09:27:45.423Z,972.93
2023-02-01T09:28:45.662Z,972.82
2023-02-01T09:29:45.923Z,972.86
2023-02-01T09:30:46.349Z,972.84
2023-02-01T09:31:57.452Z,972.96
2023-02-01T09:32:47.566Z,972.93
2023-02-01T09:33:46.781Z,972.87
2023-02-01T09:34:46.957Z,972.93
2023-02-01T09:35:47.075Z,972.91
2023-02-01T09:36:47.296Z,972.89
2023-02-01T09:37:47.560Z,972.93
2023-02-01T09:38:52.900Z,972.90
2023-02-01T09:39:49.036Z,972.90
2023-02-01T09:40:48.227Z,972.93
2023-02-01T09:41:48.500Z,973.00
2023-02-01T09:42:48.630Z,972.94
2023-02-01T09:43:48.881Z,973.04
2023-02-01T09:44:49.031Z,972.94
2023-02-01T09:45:49.340Z,972.96
2023-02-01T09:46:49.423Z,972.97
2023-02-01T09:47:49.692Z,973.06
2023-02-01T09:48:49.932Z,972.89
2023-02-01T09:49:50.194Z,972.95
2023-02-01T09:50:50.441Z,972.95
2023-02-01T09:51:50.710Z,972.99
2023-02-01T09:52:50.841Z,972.94
2023-02-01T09:53:51.111Z,972.98
2023-02-01T09:54:51.351Z,973.02
2023-02-01T09:55:51.643Z,972.92
2023-02-01T09:56:51.762Z,972.88
2023-02-01T09:57:52.028Z,972.85
2023-02-01T09:58:52.186Z,972.84
2023-02-01T09:59:52.464Z,972.83
2023-02-01T10:00:52.593Z,972.78
2023-02-01T10:01:52.924Z,972.74
2023-02-01T10:02:53.029Z,972.75
2023-02-01T10:03:53.317Z,972.70
2023-02-01T10:04:53.544Z,972.69
2023-02-01T10:05:53.816Z,972.71
2023-02-01T10:06:54.055Z,972.78
2023-02-01T10:07:54.338Z,972.73
2023-02-01T10:08:54.487Z,972.87
2023-02-01T10:09:54.785Z,972.82
2023-02-01T10:10:54.918Z,972.91
2023-02-01T10:11:55.208Z,972.86
2023-02-01T10:12:55.475Z,972.78
2023-02-01T10:13:55.766Z,972.88
2023-02-01T10:14:55.920Z,972.83
2023-02-01T10:15:56.261Z,972.88
2023-02-01T10:16:56.477Z,972.80
2023-02-01T10:17:58.024Z,972.82
2023-02-01T10:18:56.789Z,972.92
2023-02-01T10:19:57.071Z,972.81
2023-02-01T10:20:57.203Z,972.74
2023-02-01T10:21:57.478Z,972.78
2023-02-01T10:23:16.380Z,972.74
2023-02-01T10:24:01.210Z,972.72
2023-02-01T10:24:58.140Z,972.69
2023-02-01T10:25:58.389Z,972.66
2023-02-01T10:26:58.663Z,972.69
2023-02-01T10:27:58.901Z,972.65
2023-02-01T10:28:59.153Z,972.68
2023-02-01T10:29:59.411Z,972.76
2023-02-01T10:30:59.908Z,972.69
2023-02-01T10:31:59.934Z,972.69
2023-02-01T10:33:00.173Z,972.68
2023-02-01T10:34:00.453Z,972.73
2023-02-01T10:35:00.611Z,972.69
2023-02-01T10:36:00.874Z,972.77
2023-02-01T10:37:01.134Z,972.65
2023-02-01T10:38:01.404Z,972.58
2023-02-01T10:39:01.574Z,972.66
2023-02-01T10:40:01.742Z,972.62
2023-02-01T10:41:01.878Z,972.66
2023-02-01T10:42:02.052Z,972.56
2023-02-01T10:43:02.196Z,972.57
2023-02-01T10:44:02.458Z,972.63
2023-02-01T10:45:02.590Z,972.69
2023-02-01T10:46:02.918Z,972.67
2023-02-01T10:47:03.015Z,972.71
2023-02-01T10:48:03.280Z,972.62
2023-02-01T10:49:03.517Z,972.79
2023-02-01T10:50:03.795Z,972.71
2023-02-01T10:51:03.951Z,972.66
2023-02-01T10:52:04.216Z,972.60
2023-02-01T10:53:04.348Z,972.73
2023-02-01T10:54:04.654Z,972.65
2023-02-01T10:55:04.844Z,972.65
2023-02-01T10:56:05.121Z,972.69
2023-02-01T10:57:05.249Z,972.63
2023-02-01T10:58:05.521Z,972.70
2023-02-01T10:59:05.794Z,972.67
2023-02-01T11:00:05.929Z,972.64
2023-02-01T11:01:06.173Z,972.69
2023-02-01T11:02:06.519Z,972.66
2023-02-01T11:03:06.679Z,972.63
2023-02-01T11:04:06.878Z,972.71
2023-02-01T11:05:06.964Z,972.73
2023-02-01T11:06:07.239Z,972.73
2023-02-01T11:07:07.374Z,972.77
2023-02-01T11:08:07.624Z,972.69
2023-02-01T11:09:07.753Z,972.66
2023-02-01T11:10:08.011Z,972.83
2023-02-01T11:11:08.153Z,972.67
2023-02-01T11:12:08.412Z,972.73
2023-02-01T11:13:08.745Z,972.76
2023-02-01T11:14:08.854Z,972.76
2023-02-01T11:15:08.975Z,972.71
2023-02-01T11:16:09.306Z,972.69
2023-02-01T11:17:09.407Z,972.70
2023-02-01T11:18:09.668Z,972.82
2023-02-01T11:19:09.918Z,972.68
2023-02-01T11:20:10.194Z,972.71
2023-02-01T11:21:10.339Z,972.79
2023-02-01T11:22:10.483Z,972.85
2023-02-01T11:23:10.612Z,972.83
2023-02-01T11:24:10.878Z,972.76
2023-02-01T11:25:11.011Z,972.86
2023-02-01T11:26:11.277Z,972.85
2023-02-01T11:27:13.775Z,972.80
2023-02-01T11:28:11.762Z,972.79
2023-02-01T11:29:11.934Z,972.78
2023-02-01T11:30:12.082Z,972.84
2023-02-01T11:31:12.431Z,972.78
2023-02-01T11:32:12.587Z,972.85
2023-02-01T11:33:12.831Z,972.84
2023-02-01T11:34:13.110Z,972.85
2023-02-01T11:35:13.281Z,972.88
2023-02-01T11:36:13.550Z,972.89
2023-02-01T11:37:13.693Z,972.87
2023-02-01T11:38:13.965Z,972.85
2023-02-01T11:39:14.124Z,972.81
2023-02-01T11:40:14.385Z,972.91
2023-02-01T11:41:14.645Z,972.91
2023-02-01T11:42:14.917Z,972.96
2023-02-01T11:43:15.061Z,972.95
2023-02-01T11:44:15.327Z,972.90
2023-02-01T11:45:15.464Z,972.89
2023-02-01T11:46:15.776Z,972.87
2023-02-01T11:47:15.985Z,972.84
2023-02-01T11:48:26.359Z,972.89
2023-02-01T11:49:17.488Z,972.97
2023-02-01T11:50:16.824Z,972.80
2023-02-01T11:51:16.917Z,972.83
2023-02-01T11:52:17.178Z,972.81
2023-02-01T11:53:17.317Z,972.80
2023-02-01T11:54:17.588Z,972.84
2023-02-01T11:55:17.833Z,972.77
2023-02-01T11:56:18.101Z,972.80
2023-02-01T11:57:18.356Z,972.82
2023-02-01T11:58:18.650Z,972.78
2023-02-01T11:59:18.810Z,972.83
2023-02-01T12:00:19.091Z,972.89
2023-02-01T12:01:19.241Z,972.80
2023-02-01T12:02:19.571Z,972.70
2023-02-01T12:03:19.747Z,972.88
2023-02-01T12:04:19.860Z,972.80
2023-02-01T12:05:20.032Z,972.81
2023-02-01T12:06:20.320Z,972.84
2023-02-01T12:07:20.529Z,972.77
2023-02-01T12:08:20.811Z,972.80
2023-02-01T12:09:20.946Z,972.82
2023-02-01T12:10:21.649Z,972.78
2023-02-01T12:11:21.475Z,972.78
2023-02-01T12:12:21.734Z,972.81
2023-02-01T12:13:21.869Z,972.85
2023-02-01T12:14:22.132Z,972.64
2023-02-01T12:15:22.371Z,972.60
2023-02-01T12:16:22.710Z,972.72
2023-02-01T12:17:22.846Z,972.75
2023-02-01T12:18:23.107Z,972.78
2023-02-01T12:19:23.340Z,972.74
2023-02-01T12:20:23.843Z,972.67
2023-02-01T12:21:23.847Z,972.80
2023-02-01T12:22:24.106Z,972.70
2023-02-01T12:23:24.347Z,972.68
2023-02-01T12:24:24.591Z,972.76
2023-02-01T12:25:24.847Z,972.72
2023-02-01T12:26:25.129Z,972.76
2023-02-01T12:27:25.337Z,972.80
2023-02-01T12:28:25.599Z,972.73
2023-02-01T12:29:25.854Z,972.71
2023-02-01T12:30:26.396Z,972.67
2023-02-01T12:31:26.351Z,972.67
2023-02-01T12:32:26.479Z,972.74
2023-02-01T12:33:26.711Z,972.74
2023-02-01T12:34:26.991Z,972.65
2023-02-01T12:35:27.221Z,972.69
2023-02-01T12:36:27.480Z,972.57
2023-02-01T12:37:27.720Z,972.63
2023-02-01T12:38:28.008Z,972.61
2023-02-01T12:39:28.132Z,972.61
2023-02-01T12:40:28.497Z,972.56
2023-02-01T12:41:28.633Z,972.52
2023-02-01T12:42:28.869Z,972.50
2023-02-01T12:43:29.130Z,972.49
2023-02-01T12:44:29.373Z,972.56
2023-02-01T12:45:29.710Z,972.43
2023-02-01T12:46:29.794Z,972.46
2023-02-01T13:51:22.812Z,972.42
2023-02-01T13:52:23.072Z,972.35
2023-02-01T13:53:23.396Z,972.40
2023-02-01T13:54:23.672Z,972.32
2023-02-01T13:55:24.322Z,972.45
2023-02-01T13:56:24.188Z,972.42
2023-02-01T13:57:24.469Z,972.44
2023-02-01T13:58:24.734Z,972.51
2023-02-01T13:59:25.013Z,972.43
2023-02-01T14:00:25.278Z,972.46
2023-02-01T14:01:25.573Z,972.54
2023-02-01T14:02:25.701Z,972.42
2023-02-01T14:03:25.953Z,972.52
2023-02-01T14:04:26.215Z,972.59
2023-02-01T14:05:26.797Z,972.52
2023-02-01T14:06:27.070Z,972.56
2023-02-01T14:07:26.792Z,972.52
2023-02-01T14:08:27.045Z,972.55
2023-02-01T14:09:27.295Z,972.56
2023-02-01T14:10:27.516Z,972.61
2023-02-01T14:11:27.767Z,972.57
2023-02-01T14:12:27.885Z,972.57
2023-02-01T14:13:28.136Z,972.65
2023-02-01T14:14:28.370Z,972.61
2023-02-01T14:15:28.755Z,972.64
2023-02-01T14:16:28.848Z,972.61
2023-02-01T14:17:29.112Z,972.60
2023-02-01T14:18:29.219Z,972.63
2023-02-01T14:19:29.488Z,972.58
2023-02-01T14:20:30.004Z,972.58
2023-02-01T14:21:29.847Z,972.61
2023-02-01T14:22:30.071Z,972.54
2023-02-01T14:23:30.319Z,972.48
2023-02-01T14:24:30.540Z,972.62
2023-02-01T14:25:30.780Z,972.58
2023-02-01T14:26:31.020Z,972.60
2023-02-01T14:27:31.320Z,972.62
2023-02-01T14:28:31.412Z,972.57
2023-02-01T14:29:31.665Z,972.63
2023-02-01T14:30:32.016Z,972.53
2023-02-01T14:31:32.198Z,972.53
2023-02-01T14:32:32.200Z,972.57
2023-02-01T14:33:32.450Z,972.61
2023-02-01T14:34:32.666Z,972.55
2023-02-01T14:35:32.926Z,972.57
2023-02-01T14:36:33.033Z,972.55
2023-02-01T14:37:33.288Z,972.52
2023-02-01T14:38:33.395Z,972.56
2023-02-01T14:39:33.658Z,972.61
2023-02-01T14:40:33.776Z,972.56
2023-02-01T14:41:34.029Z,972.57
2023-02-01T14:42:34.247Z,972.61
2023-02-01T14:43:36.247Z,972.61
2023-02-01T14:44:34.645Z,972.55
2023-02-01T14:45:34.908Z,972.56
2023-02-01T14:46:35.145Z,972.54
2023-02-01T14:47:35.241Z,972.55
2023-02-01T14:48:35.396Z,972.62
2023-02-01T14:49:35.648Z,972.57
2023-02-01T14:50:35.868Z,972.58
2023-02-01T14:51:36.126Z,972.56
